createdAt,value
2023-02-24T00:11:06.548Z,5.6
2023-02-24T00:26:15.790Z,5.3
2023-02-24T00:41:25.102Z,5.1
2023-02-24T00:56:34.489Z,4.9
2023-02-24T01:11:44.076Z,4.9
2023-02-24T01:26:54.556Z,4.8
2023-02-24T01:42:03.645Z,4.9
2023-02-24T01:57:13.155Z,5
2023-02-24T02:12:22.547Z,4.9
2023-02-24T02:27:32.572Z,4.8
2023-02-24T02:42:42.188Z,4.6
2023-02-24T02:57:51.902Z,4.5
2023-02-24T03:13:00.904Z,4.3
2023-02-24T03:28:09.155Z,4.3
2023-02-24T03:43:19.648Z,4.2
2023-02-24T03:58:28.902Z,4.3
2023-02-24T04:13:38.485Z,4.3
2023-02-24T04:28:47.994Z,4.2
2023-02-24T04:43:56.989Z,4.2
2023-02-24T04:59:06.846Z,3.9
2023-02-24T05:14:16.372Z,3.9
2023-02-24T05:29:25.930Z,3.8
2023-02-24T05:44:35.437Z,3.8
2023-02-24T05:59:45.737Z,3.8
2023-02-24T06:14:54.883Z,3.7
2023-02-24T06:30:05.549Z,3.7
2023-02-24T06:45:14.931Z,3.7
2023-02-24T07:00:24.677Z,3.7
2023-02-24T07:15:35.844Z,3.8
2023-02-24T07:30:45.110Z,3.8
2023-02-24T07:45:55.398Z,3.8
2023-02-24T08:01:04.796Z,3.8
2023-02-24T08:16:14.509Z,3.8
2023-02-24T08:31:25.643Z,3.8
2023-02-24T08:46:36.906Z,3.5
2023-02-24T09:01:53.321Z,3.3
2023-02-24T09:17:14.563Z,3.1
2023-02-24T09:32:23.401Z,3
2023-02-24T09:47:33.030Z,3
2023-02-24T10:02:42.725Z,2.9
2023-02-24T10:17:52.587Z,2.7
2023-02-24T10:33:02.133Z,2.7
2023-02-24T10:48:14.148Z,2.8
2023-02-24T11:03:32.586Z,2.9
2023-02-24T11:18:43.189Z,3
2023-02-24T11:33:52.401Z,3
2023-02-24T11:49:02.094Z,2.9
2023-02-24T12:04:10.811Z,2.8
2023-02-24T12:19:21.107Z,2.7
2023-02-24T12:34:29.578Z,2.6
2023-02-24T12:49:39.707Z,2.5
2023-02-24T13:04:49.345Z,2.5
2023-02-24T13:19:59.231Z,2.6
2023-02-24T13:35:07.704Z,2.7
2023-02-24T13:50:18.201Z,2.9
2023-02-24T14:05:27.497Z,3.1
2023-02-24T14:20:36.898Z,3.2
2023-02-24T14:35:46.928Z,3.3
2023-02-24T14:50:56.451Z,3.4
2023-02-24T15:06:05.977Z,3.6
2023-02-24T15:21:15.571Z,3.7
2023-02-24T15:36:25.400Z,3.8
2023-02-24T15:51:35.311Z,3.9
2023-02-24T16:06:44.489Z,4
2023-02-24T16:21:53.665Z,4.1
2023-02-24T16:37:03.232Z,4.1
2023-02-24T16:52:12.509Z,4.2
2023-02-24T17:07:22.317Z,4.2
2023-02-24T17:22:32.419Z,4.2
2023-02-24T17:37:42.422Z,4.3
2023-02-24T17:52:51.801Z,4.4
2023-02-24T18:08:01.655Z,4.4
2023-02-24T18:23:11.777Z,4.6
2023-02-24T18:38:21.599Z,4.7
2023-02-24T18:53:31.314Z,4.8
2023-02-24T19:08:40.961Z,4.8
2023-02-24T19:23:50.559Z,4.8
2023-02-24T19:38:59.882Z,4.6
2023-02-24T19:54:09.732Z,4.6
2023-02-24T20:09:21.114Z,4.4
2023-02-24T20:24:30.725Z,4.4
2023-02-24T20:39:40.664Z,4.3
2023-02-24T20:54:50.239Z,4.4
2023-02-24T21:10:00.045Z,4.4
2023-02-24T21:25:09.993Z,4.4
2023-02-24T21:40:22.215Z,4.4
2023-02-24T21:55:31.811Z,4.4
2023-02-24T22:10:41.655Z,4.4
2023-02-24T22:25:51.142Z,4.4
2023-02-24T22:41:00.174Z,4.4
2023-02-24T22:56:10.152Z,4.4
2023-02-24T23:11:20.924Z,4.3
2023-02-24T23:26:30.570Z,4.3
2023-02-24T23:41:40.118Z,4.4
2023-02-24T23:56:49.515Z,4.4
